createdAt,value
2018-10-06T13:24:43.544Z,72.20
2018-10-06T13:27:14.097Z,68.60
2018-10-06T13:29:44.794Z,67.80
2018-10-06T13:32:14.634Z,67.30
2018-10-06T13:34:46.291Z,66.40
2018-10-06T13:37:16.189Z,65.80
2018-10-06T13:39:46.268Z,66.40
2018-10-06T13:42:16.288Z,66.90
2018-10-06T13:44:46.269Z,67.10
2018-10-06T13:47:16.281Z,67.10
2018-10-06T13:49:46.324Z,66.40
2018-10-06T13:52:16.420Z,66.90
2018-10-06T13:54:46.509Z,67.80
2018-10-06T13:57:16.508Z,67.60
2018-10-06T13:59:46.417Z,68.60
2018-10-06T14:02:16.605Z,69.00
2018-10-06T14:04:47.041Z,70.50
2018-10-06T14:07:18.364Z,70.90
2018-10-06T14:09:48.310Z,71.60
2018-10-06T14:12:18.613Z,72.00
2018-10-06T14:14:48.808Z,71.80
2018-10-06T14:17:18.987Z,69.40
2018-10-06T14:19:49.118Z,68.00
2018-10-06T14:22:19.805Z,65.00
2018-10-06T14:24:49.746Z,64.60
2018-10-06T16:09:40.797Z,64.50
2018-10-06T16:12:11.120Z,90.00
2018-10-06T16:14:40.993Z,90.40
2018-10-06T16:17:11.222Z,90.40
2018-10-06T16:19:42.602Z,90.50
2018-10-06T21:23:19.620Z,91.40
2018-10-06T21:30:49.151Z,90.80
2018-10-06T21:33:19.260Z,90.70
2018-10-06T21:35:49.109Z,90.70
2018-10-06T21:38:19.623Z,90.70
2018-10-06T21:40:49.491Z,90.70
2018-10-06T21:43:19.612Z,90.80
2018-10-06T21:45:49.562Z,90.70
2018-10-06T21:48:19.367Z,90.80
2018-10-06T21:50:50.199Z,90.70
2018-10-06T21:53:20.126Z,91.20
2018-10-06T21:55:50.054Z,90.80
2018-10-06T21:58:20.087Z,90.80
2018-10-06T22:00:54.150Z,91.00
2018-10-06T22:03:24.083Z,91.20
2018-10-06T22:05:53.818Z,91.20
2018-10-06T22:08:23.974Z,91.30
2018-10-06T22:10:53.897Z,91.50
2018-10-06T22:13:23.787Z,91.50
2018-10-06T22:15:53.644Z,91.60
2018-10-06T22:18:23.771Z,91.50
2018-10-06T22:20:53.616Z,91.50
2018-10-06T22:23:23.559Z,91.60
2018-10-06T22:25:53.420Z,91.70
2018-10-06T22:28:23.121Z,91.70
2018-10-06T22:30:52.864Z,91.70
2018-10-06T22:33:22.555Z,91.80
2018-10-06T22:35:52.260Z,91.90
2018-10-06T22:38:21.960Z,91.90
2018-10-06T22:40:51.625Z,91.90
2018-10-06T22:43:21.706Z,92.00
2018-10-06T22:45:51.459Z,92.20
2018-10-06T22:48:21.148Z,92.10
2018-10-06T22:50:50.824Z,92.00
2018-10-06T22:53:20.541Z,92.10
2018-10-06T22:55:50.208Z,92.10
2018-10-06T22:58:20.157Z,92.20
2018-10-06T23:00:49.828Z,92.30
2018-10-06T23:03:19.571Z,92.20
2018-10-06T23:05:49.270Z,92.20
2018-10-06T23:08:18.979Z,92.20
2018-10-06T23:10:48.796Z,92.30
2018-10-06T23:13:18.492Z,92.30
2018-10-06T23:15:48.179Z,92.30
2018-10-06T23:18:17.892Z,92.40
2018-10-06T23:20:47.641Z,92.30
2018-10-06T23:23:20.252Z,92.50
2018-10-06T23:25:50.187Z,92.40
2018-10-06T23:28:20.160Z,92.30
2018-10-06T23:30:50.097Z,92.30
2018-10-06T23:33:20.011Z,92.30
2018-10-06T23:35:49.881Z,92.40
2018-10-06T23:38:19.649Z,92.40
2018-10-06T23:40:49.353Z,92.40
2018-10-06T23:43:19.186Z,92.20
2018-10-06T23:45:48.900Z,92.30
2018-10-06T23:48:18.581Z,92.50
2018-10-06T23:50:48.333Z,92.30
2018-10-06T23:53:18.165Z,92.40
2018-10-06T23:55:48.666Z,92.20
2018-10-06T23:58:18.458Z,92.30
